createdAt,value
2018-06-05T00:00:35.949Z,89.94
2018-06-05T00:01:44.810Z,90.33
2018-06-05T00:02:54.150Z,90.14
2018-06-05T00:04:03.285Z,89.94
2018-06-05T00:05:12.148Z,90.52
2018-06-05T00:06:21.294Z,90.23
2018-06-05T00:07:30.159Z,90.04
2018-06-05T00:08:39.171Z,89.85
2018-06-05T00:09:48.035Z,90.23
2018-06-05T00:10:56.900Z,89.94
2018-06-05T00:12:06.036Z,90.23
2018-06-05T00:13:15.174Z,90.33
2018-06-05T00:14:24.387Z,90.42
2018-06-05T00:15:33.251Z,90.33
2018-06-05T00:16:42.392Z,90.14
2018-06-05T00:17:51.259Z,90.04
2018-06-05T00:19:00.394Z,90.23
2018-06-05T00:20:09.408Z,90.33
2018-06-05T00:21:18.269Z,90.04
2018-06-05T00:22:27.688Z,89.94
2018-06-05T00:23:36.823Z,90.14
2018-06-05T00:24:45.973Z,89.75
2018-06-05T00:25:54.883Z,89.65
2018-06-05T00:27:03.749Z,89.18
2018-06-05T00:28:12.612Z,89.27
2018-06-05T00:29:21.475Z,89.47
2018-06-05T00:30:30.336Z,89.37
2018-06-05T00:31:39.197Z,89.08
2018-06-05T00:32:48.061Z,90.04
2018-06-05T00:33:56.922Z,90.04
2018-06-05T00:35:05.788Z,90.14
2018-06-05T00:36:14.649Z,90.19
2018-06-05T00:37:23.560Z,89.9
2018-06-05T00:38:32.974Z,90.04
2018-06-05T00:39:41.834Z,89.75
2018-06-05T00:40:50.696Z,89.47
2018-06-05T00:41:59.833Z,90.14
2018-06-05T00:43:09.078Z,90.23
2018-06-05T00:44:17.936Z,90.14
2018-06-05T00:45:26.797Z,90.04
2018-06-05T00:46:35.657Z,89.85
2018-06-05T00:47:45.079Z,90.38
2018-06-05T00:48:53.996Z,89.47
2018-06-05T00:50:02.856Z,90.28
2018-06-05T00:51:11.995Z,89.9
2018-06-05T00:52:20.858Z,89.71
2018-06-05T00:53:29.720Z,90.04
2018-06-05T00:54:38.680Z,90.42
2018-06-05T00:55:47.542Z,90.04
2018-06-05T00:56:56.684Z,89.9
2018-06-05T00:58:06.097Z,89.8
2018-06-05T00:59:15.234Z,89.94
2018-06-05T01:00:24.197Z,89.8
2018-06-05T01:01:33.057Z,90.33
2018-06-05T01:02:41.920Z,89.75
2018-06-05T01:03:50.780Z,90.57
2018-06-05T01:04:59.643Z,90.47
2018-06-05T01:06:08.508Z,89.65
2018-06-05T01:07:17.369Z,90.38
2018-06-05T01:08:26.231Z,90.38
2018-06-05T01:09:35.096Z,89.8
2018-06-05T01:10:43.958Z,90.19
2018-06-05T01:11:53.097Z,90.38
2018-06-05T01:13:01.958Z,90.42
2018-06-05T01:14:10.821Z,90.38
2018-06-05T01:15:19.683Z,90.19
2018-06-05T01:16:28.823Z,90.67
2018-06-05T01:17:37.735Z,90.38
2018-06-05T01:18:46.597Z,90.38
2018-06-05T01:19:55.460Z,90.47
2018-06-05T01:21:04.323Z,90.47
2018-06-05T01:22:13.185Z,90.38
2018-06-05T01:23:22.048Z,90.19
2018-06-05T01:24:31.465Z,90.28
2018-06-05T01:25:40.328Z,90.09
2018-06-05T01:26:49.190Z,90
2018-06-05T01:27:58.060Z,90.38
2018-06-05T01:29:06.971Z,90.67
2018-06-05T01:30:15.833Z,90.28
2018-06-05T01:31:24.969Z,90
2018-06-05T01:32:34.111Z,90.19
2018-06-05T01:33:42.975Z,89.71
2018-06-05T01:34:52.187Z,90.47
2018-06-05T01:36:01.324Z,90.57
2018-06-05T01:37:10.184Z,89.9
2018-06-05T01:38:19.046Z,89.9
2018-06-05T01:39:27.908Z,90
2018-06-05T01:40:36.770Z,90
2018-06-05T01:41:45.631Z,89.8
2018-06-05T01:42:54.491Z,89.9
2018-06-05T01:44:03.352Z,90
2018-06-05T01:45:12.216Z,90.28
2018-06-05T01:46:21.227Z,89.71
2018-06-05T01:47:30.089Z,90
2018-06-05T01:48:38.951Z,90.19
2018-06-05T01:49:48.367Z,90.47
2018-06-05T01:50:57.511Z,90.19
2018-06-05T01:52:06.471Z,89.9
2018-06-05T01:53:15.335Z,90.19
2018-06-05T01:54:24.249Z,90.28
2018-06-05T01:55:33.399Z,90.28
2018-06-05T01:56:42.255Z,89.61
2018-06-05T01:57:51.441Z,89.85
2018-06-05T01:59:00.304Z,90.19
2018-06-05T02:00:09.166Z,89.9
2018-06-05T02:01:18.029Z,90.09
2018-06-05T02:02:26.889Z,90
2018-06-05T02:03:35.754Z,89.85
2018-06-05T02:04:44.618Z,89.85
2018-06-05T02:05:53.479Z,89.61
2018-06-05T02:07:02.342Z,90.14
2018-06-05T02:08:11.206Z,90
2018-06-05T02:09:20.169Z,89.71
2018-06-05T02:10:29.309Z,90
2018-06-05T02:11:38.171Z,89.9
2018-06-05T02:12:47.034Z,90.09
2018-06-05T02:13:56.176Z,90.09
2018-06-05T02:15:05.492Z,90
2018-06-05T02:16:14.634Z,90
2018-06-05T02:17:23.496Z,90.09
2018-06-05T02:18:32.358Z,89.9
2018-06-05T02:19:41.220Z,89.71
2018-06-05T02:20:50.367Z,89.61
2018-06-05T02:21:59.227Z,89.9
2018-06-05T02:23:08.371Z,90.38
2018-06-05T02:24:17.232Z,90.33
2018-06-05T02:25:26.093Z,90.43
2018-06-05T02:26:35.861Z,89.95
2018-06-05T02:27:44.725Z,90.43
2018-06-05T02:28:53.587Z,89.95
2018-06-05T02:30:02.455Z,89.95
2018-06-05T02:31:11.604Z,89.86
2018-06-05T02:32:20.756Z,90.05
2018-06-05T02:33:29.657Z,89.95
2018-06-05T02:34:39.084Z,90.14
2018-06-05T02:35:47.949Z,90.14
2018-06-05T02:36:57.365Z,90.05
2018-06-05T02:38:06.477Z,90.09
2018-06-05T02:39:15.345Z,89.61
2018-06-05T02:40:24.208Z,89.8
2018-06-05T02:41:33.077Z,89.61
2018-06-05T02:42:42.224Z,89.95
2018-06-05T02:43:51.369Z,89.71
2018-06-05T02:45:00.243Z,89.66
2018-06-05T02:46:09.386Z,89.32
2018-06-05T02:47:18.257Z,90.09
2018-06-05T02:48:27.958Z,90.05
2018-06-05T02:49:37.106Z,89.86
2018-06-05T02:50:46.247Z,89.57
2018-06-05T02:51:55.960Z,89.47
2018-06-05T02:53:05.100Z,89.9
2018-06-05T02:54:14.614Z,89.66
2018-06-05T02:55:23.856Z,90.05
2018-06-05T02:56:33.001Z,89.57
2018-06-05T02:57:42.699Z,89.37
2018-06-05T02:58:52.396Z,89.37
2018-06-05T03:00:01.535Z,89.95
2018-06-05T03:01:10.556Z,89.95
2018-06-05T03:02:19.419Z,89.66
2018-06-05T03:03:28.561Z,89.95
2018-06-05T03:04:37.421Z,89.76
2018-06-05T03:05:46.290Z,90.53
2018-06-05T03:06:55.809Z,90.05
2018-06-05T03:08:04.948Z,89.95
2018-06-05T03:09:14.089Z,89.95
2018-06-05T03:10:23.230Z,89.95
2018-06-05T03:11:32.094Z,90.23
2018-06-05T03:12:41.117Z,89.86
2018-06-05T03:13:50.256Z,90.33
2018-06-05T03:14:59.121Z,90.14
2018-06-05T03:16:08.541Z,90.33
2018-06-05T03:17:17.401Z,90.39
2018-06-05T03:18:26.415Z,90.39
2018-06-05T03:19:35.276Z,90.05
2018-06-05T03:20:44.137Z,89.76
2018-06-05T03:21:53.002Z,89.76
2018-06-05T03:23:01.867Z,89.62
2018-06-05T03:24:11.065Z,90.05
2018-06-05T03:25:19.924Z,90.09
2018-06-05T03:26:28.784Z,90.29
2018-06-05T03:27:37.647Z,90.05
2018-06-05T03:28:46.787Z,90.29
2018-06-05T03:29:55.748Z,90.48
2018-06-05T03:31:04.885Z,90.19
2018-06-05T03:32:14.023Z,90.58
2018-06-05T03:33:23.161Z,90.29
2018-06-05T03:34:32.299Z,90.48
2018-06-05T03:35:41.210Z,90.39
2018-06-05T03:36:50.072Z,90.19
2018-06-05T03:37:58.934Z,90.39
2018-06-05T03:39:08.078Z,90.29
2018-06-05T03:40:16.941Z,90.29
2018-06-05T03:41:26.077Z,90.48
2018-06-05T03:42:34.937Z,89.9
2018-06-05T03:43:43.799Z,89.52
2018-06-05T03:44:52.660Z,89.09
2018-06-05T03:46:01.798Z,88.85
2018-06-05T03:47:10.758Z,89.37
2018-06-05T03:48:19.618Z,88.76
2018-06-05T03:49:29.036Z,88.76
2018-06-05T03:50:37.895Z,88.95
2018-06-05T03:51:46.757Z,88.95
2018-06-05T03:52:55.968Z,88.66
2018-06-05T03:54:04.832Z,88.37
2018-06-05T03:55:13.976Z,88.95
2018-06-05T03:56:23.197Z,88.7
2018-06-05T03:57:31.974Z,88.47
2018-06-05T03:58:41.376Z,88.47
2018-06-05T03:59:50.238Z,88.95
2018-06-05T04:00:59.380Z,89.14
2018-06-05T04:02:08.243Z,89.04
2018-06-05T04:03:17.378Z,88.95
2018-06-05T04:04:26.372Z,88.66
2018-06-05T04:05:35.535Z,88.28
2018-06-05T04:06:44.395Z,88.37
2018-06-05T04:07:53.258Z,88.28
2018-06-05T04:09:02.121Z,88.37
2018-06-05T04:10:11.270Z,88.47
2018-06-05T04:11:20.128Z,88.7
2018-06-05T04:12:28.987Z,88.9
2018-06-05T04:13:37.851Z,88.7
2018-06-05T04:14:46.710Z,88.85
2018-06-05T04:15:55.572Z,88.47
2018-06-05T04:17:04.433Z,88.66
2018-06-05T04:18:13.297Z,88.95
2018-06-05T04:19:22.160Z,89.04
2018-06-05T04:20:31.297Z,89.04
2018-06-05T04:21:40.308Z,88.7
2018-06-05T04:22:49.172Z,88.8
2018-06-05T04:23:58.315Z,88.42
2018-06-05T04:25:07.176Z,88.7
2018-06-05T04:26:16.041Z,88.61
2018-06-05T04:27:25.252Z,88.7
2018-06-05T04:28:34.680Z,89.04
2018-06-05T04:29:43.542Z,88.76
2018-06-05T04:30:52.404Z,89.14
2018-06-05T04:32:01.268Z,88.85
2018-06-05T04:33:10.130Z,88.18
2018-06-05T04:34:18.993Z,88.66
2018-06-05T04:35:27.857Z,89.33
2018-06-05T04:36:36.997Z,88.95
2018-06-05T04:37:45.858Z,88.95
2018-06-05T04:38:54.773Z,88.95
2018-06-05T04:40:03.639Z,88.8
2018-06-05T04:41:12.502Z,88.7
2018-06-05T04:42:21.653Z,88.66
2018-06-05T04:43:30.793Z,88.95
2018-06-05T04:44:39.857Z,89.14
2018-06-05T04:45:49.048Z,89.18
2018-06-05T04:46:57.908Z,88.99
2018-06-05T04:48:06.773Z,88.9
2018-06-05T04:49:15.631Z,88.95
2018-06-05T04:50:25.117Z,88.61
2018-06-05T04:51:34.258Z,88.8
2018-06-05T04:52:43.117Z,89.04
2018-06-05T04:53:52.255Z,89.18
2018-06-05T04:55:01.402Z,89.09
2018-06-05T04:56:10.370Z,88.51
2018-06-05T04:57:19.514Z,88.8
2018-06-05T04:58:28.371Z,88.95
2018-06-05T04:59:37.233Z,88.8
2018-06-05T05:00:46.093Z,89.14
2018-06-05T05:01:55.005Z,88.66
2018-06-05T05:03:03.870Z,88.99
2018-06-05T05:04:12.736Z,88.61
2018-06-05T05:05:21.595Z,88.61
2018-06-05T05:06:30.455Z,89.52
2018-06-05T05:07:39.315Z,89.04
2018-06-05T05:08:48.177Z,89.09
2018-06-05T05:09:57.037Z,88.85
2018-06-05T05:11:05.903Z,89.28
2018-06-05T05:12:15.320Z,89.18
2018-06-05T05:13:24.557Z,88.76
2018-06-05T05:14:33.421Z,89.18
2018-06-05T05:15:42.280Z,88.8
2018-06-05T05:16:51.416Z,89.33
2018-06-05T05:18:00.552Z,88.8
2018-06-05T05:19:09.767Z,88.8
2018-06-05T05:20:18.629Z,88.8
2018-06-05T05:21:27.767Z,88.42
2018-06-05T05:22:36.629Z,88.51
2018-06-05T05:23:45.491Z,88.42
2018-06-05T05:24:54.351Z,88.9
2018-06-05T05:26:03.215Z,88.99
2018-06-05T05:27:12.101Z,88.7
2018-06-05T05:28:21.219Z,88.7
2018-06-05T05:29:30.082Z,88.8
2018-06-05T05:30:39.219Z,88.7
2018-06-05T05:31:48.355Z,88.23
2018-06-05T05:32:57.221Z,88.23
2018-06-05T05:34:06.082Z,88.8
2018-06-05T05:35:15.224Z,88.51
2018-06-05T05:36:24.087Z,88.51
2018-06-05T05:37:32.951Z,88.61
2018-06-05T05:38:41.817Z,89.18
2018-06-05T05:39:50.682Z,88.7
2018-06-05T05:40:59.543Z,88.51
2018-06-05T05:42:08.407Z,89.09
2018-06-05T05:43:17.269Z,89.09
2018-06-05T05:44:26.131Z,88.51
2018-06-05T05:45:34.999Z,88.8
2018-06-05T05:46:43.862Z,89.09
2018-06-05T05:47:52.725Z,88.8
2018-06-05T05:49:01.585Z,88.99
2018-06-05T05:50:10.731Z,88.99
2018-06-05T05:51:19.592Z,88.61
2018-06-05T05:52:28.733Z,88.8
2018-06-05T05:53:37.845Z,88.51
2018-06-05T05:54:46.773Z,88.9
2018-06-05T05:55:56.098Z,88.8
2018-06-05T05:57:04.961Z,88.7
2018-06-05T05:58:13.837Z,88.42
2018-06-05T05:59:22.698Z,88.42
2018-06-05T06:00:31.558Z,88.9
2018-06-05T06:01:40.469Z,88.56
2018-06-05T06:02:49.609Z,88.13
2018-06-05T06:03:58.470Z,88.23
2018-06-05T06:05:07.610Z,88.23
2018-06-05T06:06:16.472Z,88.51
2018-06-05T06:07:25.435Z,88.23
2018-06-05T06:08:34.297Z,88.9
2018-06-05T06:09:43.498Z,88.94
2018-06-05T06:10:52.684Z,88.27
2018-06-05T06:12:01.656Z,88.37
2018-06-05T06:13:11.167Z,88.17
2018-06-05T06:14:20.643Z,88.08
2018-06-05T06:15:30.037Z,88.17
2018-06-05T06:16:39.600Z,88.27
2018-06-05T06:17:48.466Z,88.37
2018-06-05T06:18:57.610Z,88.17
2018-06-05T06:20:06.472Z,88.94
2018-06-05T06:21:15.611Z,88.46
2018-06-05T06:22:24.474Z,88.9
2018-06-05T06:23:33.337Z,88.56
2018-06-05T06:24:42.755Z,88.94
2018-06-05T06:25:51.619Z,88.08
2018-06-05T06:27:00.537Z,88.08
2018-06-05T06:28:10.140Z,88.17
2018-06-05T06:29:19.006Z,88.46
2018-06-05T06:30:28.149Z,88.27
2018-06-05T06:31:37.013Z,88.46
2018-06-05T06:32:45.879Z,88.84
2018-06-05T06:33:54.744Z,88.27
2018-06-05T06:35:03.659Z,88.65
2018-06-05T06:36:12.525Z,88.56
2018-06-05T06:37:21.388Z,88.65
2018-06-05T06:38:30.638Z,88.84
2018-06-05T06:39:39.451Z,88.75
2018-06-05T06:40:48.590Z,88.37
2018-06-05T06:41:57.455Z,88.56
2018-06-05T06:43:06.882Z,88.17
2018-06-05T06:44:15.994Z,88.17
2018-06-05T06:45:24.861Z,88.84
2018-06-05T06:46:33.993Z,88.22
2018-06-05T06:47:42.857Z,88.22
2018-06-05T06:48:52.104Z,88.22
2018-06-05T06:50:01.434Z,88.12
2018-06-05T06:51:10.299Z,88.22
2018-06-05T06:52:19.163Z,88.12
2018-06-05T06:53:28.025Z,88.12
2018-06-05T06:54:36.889Z,88.12
2018-06-05T06:55:46.585Z,88.51
2018-06-05T06:56:55.730Z,88.51
2018-06-05T06:58:04.874Z,88.79
2018-06-05T06:59:13.741Z,88.22
2018-06-05T07:00:22.609Z,87.74
2018-06-05T07:01:32.099Z,88.51
2018-06-05T07:02:41.247Z,88.7
2018-06-05T07:03:50.113Z,88.51
2018-06-05T07:04:58.974Z,88.12
2018-06-05T07:06:07.840Z,88.31
2018-06-05T07:07:16.982Z,88.6
2018-06-05T07:08:25.845Z,88.89
2018-06-05T07:09:34.713Z,88.79
2018-06-05T07:10:43.574Z,88.89
2018-06-05T07:11:52.438Z,88.98
2018-06-05T07:13:01.302Z,89.18
2018-06-05T07:14:10.443Z,88.89
2018-06-05T07:15:19.309Z,88.79
2018-06-05T07:16:28.447Z,88.7
2018-06-05T07:17:37.310Z,88.98
2018-06-05T07:18:46.323Z,88.6
2018-06-05T07:19:55.189Z,88.41
2018-06-05T07:21:04.056Z,88.6
2018-06-05T07:22:12.913Z,88.74
2018-06-05T07:23:21.774Z,88.07
2018-06-05T07:24:30.639Z,88.26
2018-06-05T07:25:39.505Z,88.26
2018-06-05T07:26:48.366Z,88.26
2018-06-05T07:27:57.227Z,87.78
2018-06-05T07:29:06.090Z,88.22
2018-06-05T07:30:15.606Z,88.22
2018-06-05T07:31:24.760Z,88.6
2018-06-05T07:32:33.901Z,88.02
2018-06-05T07:33:42.767Z,88.89
2018-06-05T07:34:51.915Z,88.7
2018-06-05T07:36:01.129Z,88.79
2018-06-05T07:37:09.998Z,88.89
2018-06-05T07:38:18.864Z,88.22
2018-06-05T07:39:27.729Z,88.89
2018-06-05T07:40:36.597Z,87.98
2018-06-05T07:41:45.896Z,88.35
2018-06-05T07:42:55.038Z,88.55
2018-06-05T07:44:03.901Z,88.45
2018-06-05T07:45:12.765Z,88.17
2018-06-05T07:46:21.630Z,88.26
2018-06-05T07:47:30.598Z,88.55
2018-06-05T07:48:39.739Z,88.45
2018-06-05T07:49:48.602Z,88.35
2018-06-05T07:50:57.786Z,87.88
2018-06-05T07:52:06.923Z,87.54
2018-06-05T07:53:15.884Z,87.82
2018-06-05T07:54:24.749Z,87.54
2018-06-05T07:55:33.611Z,87.35
2018-06-05T07:56:42.755Z,87.78
2018-06-05T07:57:51.617Z,88.35
2018-06-05T07:59:00.629Z,88.26
2018-06-05T08:00:09.495Z,88.26
2018-06-05T08:01:18.644Z,88.35
2018-06-05T08:02:27.509Z,87.63
2018-06-05T08:03:36.657Z,87.25
2018-06-05T08:04:45.869Z,87.25
2018-06-05T08:05:54.734Z,87.63
2018-06-05T08:07:03.600Z,87.68
2018-06-05T08:08:12.466Z,88.11
2018-06-05T08:09:21.608Z,88.45
2018-06-05T08:10:30.622Z,87.73
2018-06-05T08:11:39.486Z,88.11
2018-06-05T08:12:48.967Z,87.15
2018-06-05T08:13:57.830Z,87.15
2018-06-05T08:15:06.718Z,87.35
2018-06-05T08:16:16.039Z,87.54
2018-06-05T08:17:24.901Z,88.21
2018-06-05T08:18:34.044Z,88.49
2018-06-05T08:19:42.907Z,88.11
2018-06-05T08:20:51.772Z,88.31
2018-06-05T08:22:00.736Z,88.4
2018-06-05T08:23:10.156Z,88.26
2018-06-05T08:24:19.020Z,88.07
2018-06-05T08:25:28.201Z,88.17
2018-06-05T08:26:37.343Z,87.68
2018-06-05T08:27:46.357Z,87.68
2018-06-05T08:28:55.495Z,87.49
2018-06-05T08:30:04.362Z,88.26
2018-06-05T08:31:13.225Z,88.35
2018-06-05T08:32:22.089Z,88.35
2018-06-05T08:33:31.002Z,89.12
2018-06-05T08:34:39.866Z,89.22
2018-06-05T08:35:48.728Z,88.65
2018-06-05T08:36:57.591Z,88.45
2018-06-05T08:38:06.455Z,88.45
2018-06-05T08:39:15.668Z,87.73
2018-06-05T08:40:24.532Z,87.44
2018-06-05T08:41:33.400Z,87.54
2018-06-05T08:42:42.263Z,87.44
2018-06-05T08:43:51.128Z,88.31
2018-06-05T08:45:00.042Z,87.82
2018-06-05T08:46:08.906Z,87.54
2018-06-05T08:47:18.051Z,87.73
2018-06-05T08:48:27.189Z,87.73
2018-06-05T08:49:36.053Z,87.63
2018-06-05T08:50:44.967Z,88.59
2018-06-05T08:51:53.831Z,87.63
2018-06-05T08:53:02.694Z,88.59
2018-06-05T08:54:11.581Z,88.02
2018-06-05T08:55:21.066Z,88.49
2018-06-05T08:56:29.977Z,88.49
2018-06-05T08:57:38.841Z,88.31
2018-06-05T08:58:47.715Z,87.1
2018-06-05T08:59:56.884Z,87.29
2018-06-05T09:01:06.654Z,87.49
2018-06-05T09:02:15.516Z,86.76
2018-06-05T09:03:24.378Z,87.15
2018-06-05T09:04:33.244Z,86.38
2018-06-05T09:05:42.112Z,86.43
2018-06-05T09:06:50.974Z,86.85
2018-06-05T09:08:00.218Z,86.38
2018-06-05T09:09:09.085Z,86.09
2018-06-05T09:10:18.239Z,86.66
2018-06-05T09:11:27.383Z,86.47
2018-06-05T09:12:36.560Z,86.18
2018-06-05T09:13:45.576Z,85.71
2018-06-05T09:14:54.440Z,85.71
2018-06-05T09:16:03.304Z,85.95
2018-06-05T09:17:12.170Z,86.14
2018-06-05T09:18:21.034Z,86.43
2018-06-05T09:19:29.949Z,86.18
2018-06-05T09:20:38.815Z,87.05
2018-06-05T09:21:47.959Z,87.15
2018-06-05T09:22:56.822Z,86.85
2018-06-05T09:24:05.687Z,85.32
2018-06-05T09:25:14.659Z,85.13
2018-06-05T09:26:23.526Z,86.38
2018-06-05T09:27:32.392Z,86.18
2018-06-05T09:28:41.257Z,86.18
2018-06-05T09:29:50.125Z,86.47
2018-06-05T09:30:59.138Z,87.15
2018-06-05T09:32:08.013Z,86.18
2018-06-05T09:33:16.868Z,86.13
2018-06-05T09:34:25.767Z,86.42
2018-06-05T09:35:35.235Z,85.94
2018-06-05T09:36:44.348Z,86.52
2018-06-05T09:37:53.210Z,86.52
2018-06-05T09:39:02.353Z,85.32
2018-06-05T09:40:11.218Z,85.13
2018-06-05T09:41:20.082Z,86.28
2018-06-05T09:42:29.197Z,86.28
2018-06-05T09:43:38.064Z,86.38
2018-06-05T09:44:46.935Z,86.38
2018-06-05T09:45:55.799Z,85.22
2018-06-05T09:47:04.665Z,85.61
2018-06-05T09:48:13.632Z,85.51
2018-06-05T09:49:22.497Z,86.76
2018-06-05T09:50:31.359Z,87.05
2018-06-05T09:51:40.225Z,86.76
2018-06-05T09:52:49.092Z,86.09
2018-06-05T09:53:58.280Z,86.38
2018-06-05T09:55:07.149Z,85.8
2018-06-05T09:56:16.013Z,86.28
2018-06-05T09:57:24.880Z,85.84
2018-06-05T09:58:34.208Z,85.07
2018-06-05T09:59:43.503Z,85.75
2018-06-05T10:00:52.686Z,86.42
2018-06-05T10:02:01.547Z,85.46
2018-06-05T10:03:10.410Z,85.75
2018-06-05T10:04:19.278Z,85.36
2018-06-05T10:05:28.241Z,86.42
2018-06-05T10:06:37.120Z,87.38
2018-06-05T10:07:45.966Z,86.32
2018-06-05T10:08:55.120Z,85.75
2018-06-05T10:10:03.987Z,84.25
2018-06-05T10:11:12.852Z,84.92
2018-06-05T10:12:21.720Z,85.11
2018-06-05T10:13:30.855Z,85.5
2018-06-05T10:14:39.720Z,85.31
2018-06-05T10:15:48.584Z,85.02
2018-06-05T10:16:57.497Z,84.83
2018-06-05T10:18:06.654Z,83.96
2018-06-05T10:19:15.795Z,84.92
2018-06-05T10:20:24.732Z,84.34
2018-06-05T10:21:33.808Z,83.81
2018-06-05T10:22:42.784Z,84.29
2018-06-05T10:23:51.649Z,83.72
2018-06-05T10:25:00.801Z,82.85
2018-06-05T10:26:09.945Z,82.94
2018-06-05T10:27:18.809Z,83
2018-06-05T10:28:28.200Z,82.85
2018-06-05T10:29:37.068Z,84.16
2018-06-05T10:30:45.934Z,82.32
2018-06-05T10:31:54.796Z,82.71
2018-06-05T10:33:03.660Z,82.71
2018-06-05T10:34:12.532Z,83.14
2018-06-05T10:35:21.388Z,84
2018-06-05T10:36:30.253Z,83.14
2018-06-05T10:37:39.397Z,82.85
2018-06-05T10:38:48.261Z,83.91
2018-06-05T10:39:57.553Z,82.46
2018-06-05T10:41:06.695Z,82.21
2018-06-05T10:42:15.561Z,82.5
2018-06-05T10:43:24.425Z,82.89
2018-06-05T10:44:33.292Z,82.41
2018-06-05T10:45:42.255Z,83.08
2018-06-05T10:46:51.120Z,82.5
2018-06-05T10:47:59.982Z,81.93
2018-06-05T10:49:08.850Z,81.7
2018-06-05T10:50:17.713Z,81.7
2018-06-05T10:51:26.577Z,82.17
2018-06-05T10:52:35.443Z,82.46
2018-06-05T10:53:44.328Z,82.21
2018-06-05T10:54:53.505Z,81.06
2018-06-05T10:56:02.370Z,81.63
2018-06-05T10:57:11.285Z,80.38
2018-06-05T10:58:20.429Z,80.14
2018-06-05T10:59:29.290Z,80.81
2018-06-05T11:00:38.158Z,81.39
2018-06-05T11:01:47.020Z,80.91
2018-06-05T11:02:56.035Z,81.29
2018-06-05T11:04:05.178Z,80.14
2018-06-05T11:05:14.043Z,81.39
2018-06-05T11:06:23.189Z,81.24
2018-06-05T11:07:32.334Z,79.94
2018-06-05T11:08:41.549Z,80.66
2018-06-05T11:09:50.413Z,79.69
2018-06-05T11:10:59.288Z,81.04
2018-06-05T11:12:08.154Z,79.21
2018-06-05T11:13:17.020Z,80.18
2018-06-05T11:14:26.243Z,79.89
2018-06-05T11:15:35.439Z,79.02
2018-06-05T11:16:44.579Z,78.15
2018-06-05T11:17:53.471Z,77.76
2018-06-05T11:19:02.338Z,78.25
2018-06-05T11:20:11.481Z,79.02
2018-06-05T11:21:20.624Z,78.15
2018-06-05T11:22:29.767Z,78.25
2018-06-05T11:23:38.660Z,79.79
2018-06-05T11:24:48.108Z,80.52
2018-06-05T11:25:56.976Z,81.29
2018-06-05T11:27:05.844Z,79.89
2018-06-05T11:28:14.711Z,78.15
2018-06-05T11:29:23.586Z,78.44
2018-06-05T11:30:32.731Z,77.86
2018-06-05T11:31:41.848Z,78.38
2018-06-05T11:32:50.986Z,77.81
2018-06-05T11:34:00.131Z,78
2018-06-05T11:35:09.551Z,78.67
2018-06-05T11:36:18.420Z,78.29
2018-06-05T11:37:27.611Z,77.71
2018-06-05T11:38:37.030Z,79.06
2018-06-05T11:39:45.899Z,78.29
2018-06-05T11:40:55.075Z,78.38
2018-06-05T11:42:04.402Z,76.5
2018-06-05T11:43:13.895Z,77.17
2018-06-05T11:44:23.044Z,77.46
2018-06-05T11:45:31.906Z,75.92
2018-06-05T11:46:40.779Z,76.3
2018-06-05T11:47:49.929Z,77.65
2018-06-05T11:48:59.756Z,77.46
2018-06-05T11:50:08.625Z,76.98
2018-06-05T11:51:17.555Z,76.5
2018-06-05T11:52:26.419Z,75.76
2018-06-05T11:53:35.604Z,75.37
2018-06-05T11:54:44.571Z,74.73
2018-06-05T11:55:53.438Z,75.51
2018-06-05T11:57:02.323Z,75.16
2018-06-05T11:58:11.490Z,73.42
2018-06-05T11:59:20.356Z,74.19
2018-06-05T12:00:29.591Z,74.29
2018-06-05T12:01:38.459Z,73.71
2018-06-05T12:02:47.633Z,73.65
2018-06-05T12:03:56.780Z,72.58
2018-06-05T12:05:05.650Z,72.68
2018-06-05T12:06:14.995Z,72.78
2018-06-05T12:07:23.867Z,73.55
2018-06-05T12:08:32.741Z,73.26
2018-06-05T12:09:41.611Z,73.36
2018-06-05T12:10:50.481Z,73.26
2018-06-05T12:11:59.502Z,74.13
2018-06-05T12:13:08.374Z,74.23
2018-06-05T12:14:17.526Z,71.68
2018-06-05T12:15:26.398Z,71.33
2018-06-05T12:16:35.269Z,71.75
2018-06-05T12:17:44.291Z,72.42
2018-06-05T12:18:53.114Z,71.08
2018-06-05T12:20:01.985Z,70.01
2018-06-05T12:21:10.861Z,69.56
2018-06-05T12:22:19.737Z,69.75
2018-06-05T12:23:29.345Z,67.85
2018-06-05T12:24:38.230Z,69.11
2018-06-05T12:25:47.481Z,69.79
2018-06-05T12:26:56.355Z,69.95
2018-06-05T12:28:05.232Z,70.62
2018-06-05T12:29:14.352Z,70.86
2018-06-05T12:30:23.226Z,69.56
2018-06-05T12:31:32.097Z,69.89
2018-06-05T12:32:40.972Z,68.15
2018-06-05T12:33:49.848Z,69.98
2018-06-05T12:34:58.724Z,67.76
2018-06-05T12:36:07.598Z,70.47
2018-06-05T12:37:16.471Z,70.18
2018-06-05T12:38:25.627Z,69.53
2018-06-05T12:39:34.503Z,68.76
2018-06-05T12:40:43.730Z,68.6
2018-06-05T12:41:52.609Z,67.44
2018-06-05T12:43:01.484Z,66.17
2018-06-05T12:44:10.356Z,64.95
2018-06-05T12:45:19.233Z,65.43
2018-06-05T12:46:28.162Z,65.92
2018-06-05T12:47:37.038Z,64.65
2018-06-05T12:48:45.915Z,64.75
2018-06-05T12:49:54.793Z,63.72
2018-06-05T12:51:03.947Z,64.01
2018-06-05T12:52:12.922Z,65.82
2018-06-05T12:53:21.798Z,66.02
2018-06-05T12:54:30.674Z,66.69
2018-06-05T12:55:39.552Z,65.72
2018-06-05T12:56:48.426Z,66.11
2018-06-05T12:57:57.322Z,67.57
2018-06-05T12:59:06.593Z,65.75
2018-06-05T13:00:15.471Z,66.63
2018-06-05T13:01:24.489Z,64.5
2018-06-05T13:02:33.619Z,63.82
2018-06-05T13:03:43.138Z,62.1
2018-06-05T13:04:52.125Z,63.39
2018-06-05T13:06:01.005Z,61.94
2018-06-05T13:07:10.161Z,60.97
2018-06-05T13:08:19.041Z,62.23
2018-06-05T13:09:27.917Z,60.87
2018-06-05T13:10:36.800Z,60.38
2018-06-05T13:11:45.700Z,60.87
2018-06-05T13:12:55.212Z,60.97
2018-06-05T13:14:04.641Z,61.38
2018-06-05T13:15:13.670Z,61.16
2018-06-05T13:16:22.548Z,61.09
2018-06-05T13:17:31.993Z,61.68
2018-06-05T13:18:41.590Z,60.12
2018-06-05T13:19:50.749Z,59.64
2018-06-05T13:20:59.778Z,61.58
2018-06-05T13:22:08.660Z,58.18
2018-06-05T13:23:17.537Z,56.95
2018-06-05T13:24:26.415Z,57.23
2018-06-05T13:25:35.295Z,57.92
2018-06-05T13:26:44.452Z,56.85
2018-06-05T13:27:53.331Z,58.11
2018-06-05T13:29:02.488Z,56.46
2018-06-05T13:30:11.375Z,55.98
2018-06-05T13:31:20.249Z,55.71
2018-06-05T13:32:29.178Z,55.9
2018-06-05T13:33:38.062Z,54.66
2018-06-05T13:34:46.943Z,53.3
2018-06-05T13:35:55.824Z,53.47
2018-06-05T13:37:04.709Z,54.74
2018-06-05T13:38:13.740Z,54.44
2018-06-05T13:39:22.623Z,54.25
2018-06-05T13:40:31.510Z,53.59
2018-06-05T13:41:40.706Z,53.5
2018-06-05T13:42:49.833Z,53.69
2018-06-05T13:43:59.179Z,52.84
2018-06-05T13:45:08.332Z,52.36
2018-06-05T13:46:17.214Z,54.79
2018-06-05T13:47:26.096Z,51.21
2018-06-05T13:48:35.254Z,50.43
2018-06-05T13:49:44.187Z,50.65
2018-06-05T13:50:53.072Z,50.26
2018-06-05T13:52:01.948Z,53.16
2018-06-05T13:53:10.832Z,50.82
2018-06-05T13:54:19.710Z,50.43
2018-06-05T13:55:28.898Z,50.92
2018-06-05T13:56:37.780Z,50.53
2018-06-05T13:57:46.663Z,50.75
2018-06-05T13:58:55.819Z,49.58
2018-06-05T14:00:04.701Z,50.58
2018-06-05T14:01:13.733Z,48.41
2018-06-05T14:02:22.616Z,48.44
2018-06-05T14:03:31.503Z,48.54
2018-06-05T14:04:40.659Z,47.85
2018-06-05T14:05:49.544Z,47.17
2018-06-05T14:06:58.477Z,49.05
2018-06-05T14:08:07.644Z,48.46
2018-06-05T14:09:16.891Z,47.88
2018-06-05T14:10:26.124Z,47.39
2018-06-05T14:11:35.018Z,47.41
2018-06-05T14:12:43.949Z,48.49
2018-06-05T14:13:52.831Z,47.24
2018-06-05T14:15:01.719Z,47.53
2018-06-05T14:16:10.880Z,47.44
2018-06-05T14:17:19.762Z,46.29
2018-06-05T14:18:28.647Z,46.68
2018-06-05T14:19:37.538Z,46.68
2018-06-05T14:20:46.775Z,46.19
2018-06-05T14:21:55.922Z,46.68
2018-06-05T14:23:04.810Z,45.82
2018-06-05T14:24:14.144Z,45.82
2018-06-05T14:25:23.313Z,45.62
2018-06-05T14:26:32.195Z,46.21
2018-06-05T14:27:41.076Z,46.14
2018-06-05T14:28:49.981Z,46.14
2018-06-05T14:29:58.848Z,46.72
2018-06-05T14:31:07.728Z,46.6
2018-06-05T14:32:16.609Z,45.92
2018-06-05T14:33:25.490Z,46.11
2018-06-05T14:34:34.375Z,46.6
2018-06-05T14:35:43.258Z,47.28
2018-06-05T14:36:52.420Z,44.84
2018-06-05T14:38:01.583Z,43.01
2018-06-05T14:39:10.745Z,44.57
2018-06-05T14:40:19.626Z,44.28
2018-06-05T14:41:28.784Z,43.87
2018-06-05T14:42:37.667Z,44.67
2018-06-05T14:43:46.550Z,45.65
2018-06-05T14:44:55.825Z,46.62
2018-06-05T14:46:05.462Z,45.33
2018-06-05T14:47:14.348Z,46.6
2018-06-05T14:48:23.235Z,46.58
2018-06-05T14:49:32.397Z,46.78
2018-06-05T14:50:41.282Z,45.92
2018-06-05T14:51:50.370Z,47.41
2018-06-05T14:52:59.528Z,45.92